Lac-Au-Saumon, Canada
Current Conditions -  °F | °C
As of 8:00 AM on Sunday 23 Nov 2014 (Local Time) from CYYY Reporting Station
Light Snow Light Snow  
Wind Chill: 26°   Ceiling: 2500
Heat Index: 36°   Visibility: 30mi
Dew Point: 30°   Wind: 16mph
Humidity: 81%   Direction: 270°W
Pressure: 29.88"   Gusts: NA
Location:  48.42°N, 67.33°W
Report Text: CYYY 231300Z 27014KT 30SM -SN OVC025 02/M01 A2988 RMK SC8 SLP122
Loading
Personal Weather Stations






























Interactive Weather Map New forecast layout! Learn more

10-Day Weather Forecast

Advertisements
Track Severe Weather on mobile